Monaco : Les meilleurs tours en course

C'est finalement Kimi Räikkönen qui signe le meilleur temps après une course humide

C'est finalement Kimi Räikkönen qui signe le meilleur temps après une course humide. C'est lors de l'avant dernier tour du Grand Prix de Monaco que le finlandais a signé un chrono en 1:16.689. A noter que le pilote Ferrari est le seul a avoir passé la barre des 1.17.

Pos Pilotes Equipes Temps Tours Vitesse
01 K. Räikkönen Ferrari 1:16.689 74 156.789
02 H. Kovalainen McLaren 1:17.282 74 155.586
03 F. Alonso Renault 1:17.869 73 154.413
04 F. Massa Ferrari 1:17.886 76 154.379
05 R. Kubica BMW Sauber 1:17.933 75 154.286
06 L. Hamilton McLaren 1:18.510 71 153.152
07 S. Vettel Toro Rosso 1:18.787 74 152.614
08 M. Webber Red Bull 1:19.036 74 152.133
09 R. Barrichello Honda 1:19.574 75 151.104
10 J. Button Honda 1:19.582 74 151.089
11 T. Glock Toyota 1:19.618 75 151.021
12 J. Trulli Toyota 1:19.830 75 150.620
13 K. Nakajima Williams 1:19.910 75 150.469
14 N. Heidfeld BMW Sauber 1:20.251 72 149.829
15 N. Rosberg Williams 1:21.270 58 147.951
16 A. Sutil Force India 1:22.039 60 146.564
17 N. Piquet Renault 1:31.187 40 131.860
18 G. Fisichella Force India 1:32.849 33 129.500
19 S. Bourdais Toro Rosso 1:41.150 7 118.872
20 D. Coulthard Red Bull 1:42.112 7 117.753

Faites partie de quelque chose de grand

Écrire un commentaire
Montrer les commentaires
A propos de cet article
Séries Formule 1
Pilotes Kimi Räikkönen
Équipes McLaren , Toro Rosso , Sauber , Williams , Force India , Ferrari
Type d'article Actualités